sensor_id;sensor_type;location;lat;lon;timestamp;pressure;altitude;pressure_sealevel;temperature;humidity
61682;BME280;47577;43.610;25.010;2024-03-07T00:00:05;100535.38;;;7.60;77.15
61682;BME280;47577;43.610;25.010;2024-03-07T00:02:47;100533.56;;;7.62;77.01
61682;BME280;47577;43.610;25.010;2024-03-07T00:05:17;100531.91;;;7.56;76.99
61682;BME280;47577;43.610;25.010;2024-03-07T00:07:43;100522.22;;;7.57;76.36
61682;BME280;47577;43.610;25.010;2024-03-07T00:10:10;100522.13;;;7.61;76.98
61682;BME280;47577;43.610;25.010;2024-03-07T00:12:37;100520.38;;;7.60;77.33
61682;BME280;47577;43.610;25.010;2024-03-07T00:15:08;100523.94;;;7.58;77.30
61682;BME280;47577;43.610;25.010;2024-03-07T00:17:34;100517.00;;;7.52;75.36
61682;BME280;47577;43.610;25.010;2024-03-07T00:20:01;100512.59;;;7.51;74.58
61682;BME280;47577;43.610;25.010;2024-03-07T00:22:27;100505.44;;;7.56;75.27
61682;BME280;47577;43.610;25.010;2024-03-07T00:24:55;100515.03;;;7.63;74.35
61682;BME280;47577;43.610;25.010;2024-03-07T00:27:22;100513.16;;;7.68;73.65
61682;BME280;47577;43.610;25.010;2024-03-07T00:29:51;100508.69;;;7.71;74.03
61682;BME280;47577;43.610;25.010;2024-03-07T00:32:20;100503.34;;;7.74;73.84
61682;BME280;47577;43.610;25.010;2024-03-07T00:34:46;100506.69;;;7.82;70.71
61682;BME280;47577;43.610;25.010;2024-03-07T00:37:12;100501.38;;;7.83;71.67
61682;BME280;47577;43.610;25.010;2024-03-07T00:39:38;100509.06;;;7.96;70.91
61682;BME280;47577;43.610;25.010;2024-03-07T00:42:05;100507.28;;;7.96;72.97
61682;BME280;47577;43.610;25.010;2024-03-07T00:44:31;100507.19;;;8.01;74.46
61682;BME280;47577;43.610;25.010;2024-03-07T00:46:56;100500.16;;;7.98;74.50
61682;BME280;47577;43.610;25.010;2024-03-07T00:49:22;100493.25;;;7.93;76.44
61682;BME280;47577;43.610;25.010;2024-03-07T00:51:48;100490.59;;;7.93;76.07
61682;BME280;47577;43.610;25.010;2024-03-07T00:54:14;100486.16;;;7.93;75.91
61682;BME280;47577;43.610;25.010;2024-03-07T00:56:40;100478.19;;;7.95;75.97
61682;BME280;47577;43.610;25.010;2024-03-07T00:59:06;100474.69;;;7.94;74.42
61682;BME280;47577;43.610;25.010;2024-03-07T01:01:32;100470.66;;;7.76;73.50
61682;BME280;47577;43.610;25.010;2024-03-07T01:04:03;100475.22;;;7.69;72.16
61682;BME280;47577;43.610;25.010;2024-03-07T01:06:29;100483.19;;;7.66;71.09
61682;BME280;47577;43.610;25.010;2024-03-07T01:08:54;100485.81;;;7.68;71.59
61682;BME280;47577;43.610;25.010;2024-03-07T01:11:20;100476.97;;;7.69;72.31
61682;BME280;47577;43.610;25.010;2024-03-07T01:13:46;100481.22;;;7.78;72.57
61682;BME280;47577;43.610;25.010;2024-03-07T01:16:11;100482.03;;;7.80;73.51
61682;BME280;47577;43.610;25.010;2024-03-07T01:18:38;100479.41;;;7.78;72.98
61682;BME280;47577;43.610;25.010;2024-03-07T01:21:04;100473.38;;;7.72;75.43
61682;BME280;47577;43.610;25.010;2024-03-07T01:23:31;100480.69;;;7.60;75.44
61682;BME280;47577;43.610;25.010;2024-03-07T01:26:00;100475.31;;;7.63;76.57
61682;BME280;47577;43.610;25.010;2024-03-07T01:28:26;100466.50;;;7.63;75.56
61682;BME280;47577;43.610;25.010;2024-03-07T01:30:56;100481.56;;;7.59;74.71
61682;BME280;47577;43.610;25.010;2024-03-07T01:33:22;100480.59;;;7.65;75.03
61682;BME280;47577;43.610;25.010;2024-03-07T01:35:48;100479.59;;;7.69;75.24
61682;BME280;47577;43.610;25.010;2024-03-07T01:38:15;100481.28;;;7.75;77.21
61682;BME280;47577;43.610;25.010;2024-03-07T01:40:42;100485.63;;;7.76;76.08
61682;BME280;47577;43.610;25.010;2024-03-07T01:43:09;100475.06;;;7.76;73.97
61682;BME280;47577;43.610;25.010;2024-03-07T01:45:35;100470.69;;;7.75;73.43
61682;BME280;47577;43.610;25.010;2024-03-07T01:48:09;100468.16;;;7.68;73.99
61682;BME280;47577;43.610;25.010;2024-03-07T01:50:36;100467.34;;;7.65;74.40
61682;BME280;47577;43.610;25.010;2024-03-07T01:53:03;100475.19;;;7.71;74.00
61682;BME280;47577;43.610;25.010;2024-03-07T01:55:29;100463.72;;;7.69;74.46
61682;BME280;47577;43.610;25.010;2024-03-07T01:57:58;100472.81;;;7.56;73.60
61682;BME280;47577;43.610;25.010;2024-03-07T02:00:24;100472.06;;;7.50;73.55
61682;BME280;47577;43.610;25.010;2024-03-07T02:02:51;100457.19;;;7.43;73.12
61682;BME280;47577;43.610;25.010;2024-03-07T02:05:19;100470.31;;;7.48;72.18
61682;BME280;47577;43.610;25.010;2024-03-07T02:07:45;100451.84;;;7.46;70.92
61682;BME280;47577;43.610;25.010;2024-03-07T02:10:10;100456.28;;;7.44;70.50
61682;BME280;47577;43.610;25.010;2024-03-07T02:12:36;100450.19;;;7.42;70.24
61682;BME280;47577;43.610;25.010;2024-03-07T02:15:02;100458.06;;;7.44;67.62
61682;BME280;47577;43.610;25.010;2024-03-07T02:17:28;100465.06;;;7.46;69.82
61682;BME280;47577;43.610;25.010;2024-03-07T02:19:54;100453.53;;;7.50;70.31
61682;BME280;47577;43.610;25.010;2024-03-07T02:22:20;100450.22;;;7.39;69.21
61682;BME280;47577;43.610;25.010;2024-03-07T02:24:46;100458.06;;;7.45;69.21
61682;BME280;47577;43.610;25.010;2024-03-07T02:27:12;100462.41;;;7.46;68.35
61682;BME280;47577;43.610;25.010;2024-03-07T02:29:40;100461.47;;;7.50;70.10
61682;BME280;47577;43.610;25.010;2024-03-07T02:32:06;100461.47;;;7.50;68.80
61682;BME280;47577;43.610;25.010;2024-03-07T02:34:32;100459.72;;;7.49;69.03
61682;BME280;47577;43.610;25.010;2024-03-07T02:36:58;100462.22;;;7.57;68.54
61682;BME280;47577;43.610;25.010;2024-03-07T02:39:23;100448.38;;;7.43;68.53
61682;BME280;47577;43.610;25.010;2024-03-07T02:41:51;100467.72;;;7.46;69.24
61682;BME280;47577;43.610;25.010;2024-03-07T02:44:17;100460.66;;;7.47;67.94
61682;BME280;47577;43.610;25.010;2024-03-07T02:46:43;100460.63;;;7.48;68.47
61682;BME280;47577;43.610;25.010;2024-03-07T02:49:09;100463.06;;;7.58;68.70
61682;BME280;47577;43.610;25.010;2024-03-07T02:51:35;100456.88;;;7.59;69.07
61682;BME280;47577;43.610;25.010;2024-03-07T02:54:01;100460.41;;;7.59;69.43
61682;BME280;47577;43.610;25.010;2024-03-07T02:56:31;100468.38;;;7.58;69.66
61682;BME280;47577;43.610;25.010;2024-03-07T02:58:57;100465.75;;;7.56;69.33
61682;BME280;47577;43.610;25.010;2024-03-07T03:01:22;100470.19;;;7.56;68.38
61682;BME280;47577;43.610;25.010;2024-03-07T03:03:48;100471.84;;;7.61;69.57
61682;BME280;47577;43.610;25.010;2024-03-07T03:06:13;100463.03;;;7.59;70.25
61682;BME280;47577;43.610;25.010;2024-03-07T03:08:39;100454.38;;;7.53;69.23
61682;BME280;47577;43.610;25.010;2024-03-07T03:11:05;100444.69;;;7.52;69.48
61682;BME280;47577;43.610;25.010;2024-03-07T03:13:30;100458.75;;;7.54;68.69
61682;BME280;47577;43.610;25.010;2024-03-07T03:15:57;100458.06;;;7.45;69.22
61682;BME280;47577;43.610;25.010;2024-03-07T03:18:23;100457.09;;;7.48;69.13
61682;BME280;47577;43.610;25.010;2024-03-07T03:20:49;100452.94;;;7.36;68.33
61682;BME280;47577;43.610;25.010;2024-03-07T03:23:15;100461.66;;;7.41;69.84
61682;BME280;47577;43.610;25.010;2024-03-07T03:25:41;100466.13;;;7.38;69.27
61682;BME280;47577;43.610;25.010;2024-03-07T03:28:08;100468.03;;;7.31;68.54
61682;BME280;47577;43.610;25.010;2024-03-07T03:30:38;100469.88;;;7.27;70.41
61682;BME280;47577;43.610;25.010;2024-03-07T03:33:04;100452.25;;;7.26;70.08
61682;BME280;47577;43.610;25.010;2024-03-07T03:35:31;100457.41;;;7.32;69.06
61682;BME280;47577;43.610;25.010;2024-03-07T03:37:57;100465.53;;;7.23;68.50
61682;BME280;47577;43.610;25.010;2024-03-07T03:40:22;100447.88;;;7.24;68.95
61682;BME280;47577;43.610;25.010;2024-03-07T03:42:48;100466.25;;;7.31;68.81
61682;BME280;47577;43.610;25.010;2024-03-07T03:45:14;100458.34;;;7.30;68.08
61682;BME280;47577;43.610;25.010;2024-03-07T03:47:41;100464.38;;;7.37;68.66
61682;BME280;47577;43.610;25.010;2024-03-07T03:50:12;100461.78;;;7.33;68.39
61682;BME280;47577;43.610;25.010;2024-03-07T03:52:41;100462.69;;;7.34;68.58
61682;BME280;47577;43.610;25.010;2024-03-07T03:55:08;100467.31;;;7.23;68.15
61682;BME280;47577;43.610;25.010;2024-03-07T03:57:42;100466.31;;;7.27;68.07
61682;BME280;47577;43.610;25.010;2024-03-07T04:00:09;100455.72;;;7.28;67.46
61682;BME280;47577;43.610;25.010;2024-03-07T04:02:39;100463.78;;;7.21;67.99
61682;BME280;47577;43.610;25.010;2024-03-07T04:05:05;100462.81;;;7.26;68.33
61682;BME280;47577;43.610;25.010;2024-03-07T04:07:31;100472.47;;;7.29;67.81
61682;BME280;47577;43.610;25.010;2024-03-07T04:09:57;100466.53;;;7.18;68.19
61682;BME280;47577;43.610;25.010;2024-03-07T04:12:28;100471.84;;;7.16;68.14
61682;BME280;47577;43.610;25.010;2024-03-07T04:14:53;100463.94;;;7.14;68.08
61682;BME280;47577;43.610;25.010;2024-03-07T04:17:22;100470.13;;;7.12;67.97
61682;BME280;47577;43.610;25.010;2024-03-07T04:19:48;100471.13;;;7.08;67.43
61682;BME280;47577;43.610;25.010;2024-03-07T04:22:13;100464.09;;;7.05;68.23
61682;BME280;47577;43.610;25.010;2024-03-07T04:24:39;100468.47;;;7.08;67.74
61682;BME280;47577;43.610;25.010;2024-03-07T04:27:06;100465.00;;;7.03;67.77
61682;BME280;47577;43.610;25.010;2024-03-07T04:29:35;100477.25;;;7.08;68.14
61682;BME280;47577;43.610;25.010;2024-03-07T04:32:01;100475.63;;;7.00;67.70
61682;BME280;47577;43.610;25.010;2024-03-07T04:34:31;100477.44;;;6.98;67.12
61682;BME280;47577;43.610;25.010;2024-03-07T04:36:58;100488.16;;;6.88;68.19
61682;BME280;47577;43.610;25.010;2024-03-07T04:39:27;100484.69;;;6.86;68.59
61682;BME280;47577;43.610;25.010;2024-03-07T04:41:59;100489.94;;;6.89;67.76
61682;BME280;47577;43.610;25.010;2024-03-07T04:44:32;100480.16;;;6.93;68.37
61682;BME280;47577;43.610;25.010;2024-03-07T04:46:59;100481.28;;;6.80;68.83
61682;BME280;47577;43.610;25.010;2024-03-07T04:49:29;100492.88;;;6.72;68.91
61682;BME280;47577;43.610;25.010;2024-03-07T04:51:59;100490.19;;;6.75;69.28
61682;BME280;47577;43.610;25.010;2024-03-07T04:54:26;100484.78;;;6.80;69.00
61682;BME280;47577;43.610;25.010;2024-03-07T04:56:53;100502.22;;;6.93;69.53
61682;BME280;47577;43.610;25.010;2024-03-07T04:59:20;100492.56;;;6.89;68.94
61682;BME280;47577;43.610;25.010;2024-03-07T05:01:47;100504.81;;;6.97;69.29
61682;BME280;47577;43.610;25.010;2024-03-07T05:04:14;100493.31;;;6.98;67.95
61682;BME280;47577;43.610;25.010;2024-03-07T05:06:40;100491.47;;;7.01;68.43
61682;BME280;47577;43.610;25.010;2024-03-07T05:09:07;100498.50;;;7.04;69.19
61682;BME280;47577;43.610;25.010;2024-03-07T05:11:34;100502.84;;;7.08;67.91
61682;BME280;47577;43.610;25.010;2024-03-07T05:14:00;100504.59;;;7.07;68.74
61682;BME280;47577;43.610;25.010;2024-03-07T05:16:26;100495.78;;;7.08;69.23
61682;BME280;47577;43.610;25.010;2024-03-07T05:18:52;100500.09;;;7.12;68.95
61682;BME280;47577;43.610;25.010;2024-03-07T05:21:18;100500.00;;;7.17;67.97
61682;BME280;47577;43.610;25.010;2024-03-07T05:24:13;100509.72;;;7.17;68.15
61682;BME280;47577;43.610;25.010;2024-03-07T05:26:38;100503.44;;;7.22;67.90
61682;BME280;47577;43.610;25.010;2024-03-07T05:29:08;100502.53;;;7.25;68.14
61682;BME280;47577;43.610;25.010;2024-03-07T05:31:36;100502.41;;;7.31;68.37
61682;BME280;47577;43.610;25.010;2024-03-07T05:34:03;100498.91;;;7.30;68.74
61682;BME280;47577;43.610;25.010;2024-03-07T05:36:30;100503.19;;;7.36;68.72
61682;BME280;47577;43.610;25.010;2024-03-07T05:38:57;100504.00;;;7.40;68.87
61682;BME280;47577;43.610;25.010;2024-03-07T05:41:23;100503.19;;;7.36;68.59
61682;BME280;47577;43.610;25.010;2024-03-07T05:43:48;100496.19;;;7.33;67.29
61682;BME280;47577;43.610;25.010;2024-03-07T05:46:16;100506.91;;;7.27;68.65
61682;BME280;47577;43.610;25.010;2024-03-07T05:48:42;100513.03;;;7.28;68.40
61682;BME280;47577;43.610;25.010;2024-03-07T05:51:08;100511.38;;;7.22;67.79
61682;BME280;47577;43.610;25.010;2024-03-07T05:53:35;100508.72;;;7.22;68.89
61682;BME280;47577;43.610;25.010;2024-03-07T05:56:03;100511.34;;;7.24;68.73
61682;BME280;47577;43.610;25.010;2024-03-07T05:58:28;100518.44;;;7.22;69.08
61682;BME280;47577;43.610;25.010;2024-03-07T06:00:54;100519.50;;;7.13;68.76
61682;BME280;47577;43.610;25.010;2024-03-07T06:03:19;100515.22;;;7.04;69.01
61682;BME280;47577;43.610;25.010;2024-03-07T06:05:46;100522.09;;;7.16;69.69
61682;BME280;47577;43.610;25.010;2024-03-07T06:08:20;100506.28;;;7.11;69.29
61682;BME280;47577;43.610;25.010;2024-03-07T06:10:47;100521.13;;;7.20;70.21
61682;BME280;47577;43.610;25.010;2024-03-07T06:13:15;100522.75;;;7.29;70.64
61682;BME280;47577;43.610;25.010;2024-03-07T06:15:44;100534.06;;;7.37;71.42
61682;BME280;47577;43.610;25.010;2024-03-07T06:18:10;100519.97;;;7.35;71.56
61682;BME280;47577;43.610;25.010;2024-03-07T06:20:43;100534.97;;;7.35;70.66
61682;BME280;47577;43.610;25.010;2024-03-07T06:23:09;100535.81;;;7.35;69.70
61682;BME280;47577;43.610;25.010;2024-03-07T06:25:37;100536.75;;;7.34;69.42
61682;BME280;47577;43.610;25.010;2024-03-07T06:28:13;100541.13;;;7.35;70.09
61682;BME280;47577;43.610;25.010;2024-03-07T06:30:48;100542.13;;;7.29;70.78
61682;BME280;47577;43.610;25.010;2024-03-07T06:33:14;100542.88;;;7.36;71.17
61682;BME280;47577;43.610;25.010;2024-03-07T06:35:42;100550.69;;;7.44;70.95
61682;BME280;47577;43.610;25.010;2024-03-07T06:38:09;100552.38;;;7.46;70.49
61682;BME280;47577;43.610;25.010;2024-03-07T06:40:36;100538.22;;;7.49;70.46
61682;BME280;47577;43.610;25.010;2024-03-07T06:43:03;100546.97;;;7.53;71.00
61682;BME280;47577;43.610;25.010;2024-03-07T06:45:38;100538.19;;;7.50;70.86
61682;BME280;47577;43.610;25.010;2024-03-07T06:48:07;100554.81;;;7.59;72.20
61682;BME280;47577;43.610;25.010;2024-03-07T06:50:33;100545.09;;;7.59;72.83
61682;BME280;47577;43.610;25.010;2024-03-07T06:53:00;100548.75;;;7.52;70.95
61682;BME280;47577;43.610;25.010;2024-03-07T06:55:26;100540.22;;;7.36;74.39
61682;BME280;47577;43.610;25.010;2024-03-07T06:57:53;100537.56;;;7.38;74.64
61682;BME280;47577;43.610;25.010;2024-03-07T07:00:19;100539.34;;;7.37;76.33
61682;BME280;47577;43.610;25.010;2024-03-07T07:02:46;100564.13;;;7.31;75.84
61682;BME280;47577;43.610;25.010;2024-03-07T07:05:12;100545.63;;;7.30;77.22
61682;BME280;47577;43.610;25.010;2024-03-07T07:07:41;100564.75;;;7.46;77.11
61682;BME280;47577;43.610;25.010;2024-03-07T07:10:08;100559.44;;;7.46;77.43
61682;BME280;47577;43.610;25.010;2024-03-07T07:12:37;100562.88;;;7.51;79.27
61682;BME280;47577;43.610;25.010;2024-03-07T07:15:03;100565.38;;;7.59;79.82
61682;BME280;47577;43.610;25.010;2024-03-07T07:17:29;100569.47;;;7.27;80.55
61682;BME280;47577;43.610;25.010;2024-03-07T07:19:57;100571.25;;;7.28;79.09
61682;BME280;47577;43.610;25.010;2024-03-07T07:22:24;100557.88;;;7.36;81.43
61682;BME280;47577;43.610;25.010;2024-03-07T07:24:50;100549.91;;;7.39;81.47
61682;BME280;47577;43.610;25.010;2024-03-07T07:27:16;100561.41;;;7.35;81.05
61682;BME280;47577;43.610;25.010;2024-03-07T07:29:41;100565.56;;;7.48;79.83
61682;BME280;47577;43.610;25.010;2024-03-07T07:32:07;100561.16;;;7.50;80.21
61682;BME280;47577;43.610;25.010;2024-03-07T07:34:33;100562.81;;;7.54;78.89
61682;BME280;47577;43.610;25.010;2024-03-07T07:36:59;100551.34;;;7.55;81.03
61682;BME280;47577;43.610;25.010;2024-03-07T07:39:27;100551.44;;;7.50;80.32
61682;BME280;47577;43.610;25.010;2024-03-07T07:41:54;100554.94;;;7.51;80.19
61682;BME280;47577;43.610;25.010;2024-03-07T07:44:20;100552.22;;;7.56;81.30
61682;BME280;47577;43.610;25.010;2024-03-07T07:46:47;100564.31;;;7.67;82.00
61682;BME280;47577;43.610;25.010;2024-03-07T07:49:14;100558.25;;;7.62;79.77
61682;BME280;47577;43.610;25.010;2024-03-07T07:51:41;100562.75;;;7.59;77.32
61682;BME280;47577;43.610;25.010;2024-03-07T07:54:07;100562.84;;;7.53;78.36
61682;BME280;47577;43.610;25.010;2024-03-07T07:56:35;100572.50;;;7.57;79.00
61682;BME280;47577;43.610;25.010;2024-03-07T07:59:01;100582.06;;;7.62;77.24
61682;BME280;47577;43.610;25.010;2024-03-07T08:01:30;100565.53;;;7.51;76.84
61682;BME280;47577;43.610;25.010;2024-03-07T08:03:55;100558.69;;;7.39;76.81
61682;BME280;47577;43.610;25.010;2024-03-07T08:06:21;100566.63;;;7.39;77.90
61682;BME280;47577;43.610;25.010;2024-03-07T08:08:46;100578.00;;;7.44;77.54
61682;BME280;47577;43.610;25.010;2024-03-07T08:11:12;100576.38;;;7.37;77.67
61682;BME280;47577;43.610;25.010;2024-03-07T08:13:40;100577.91;;;7.49;77.87
61682;BME280;47577;43.610;25.010;2024-03-07T08:16:06;100569.13;;;7.48;78.51
61682;BME280;47577;43.610;25.010;2024-03-07T08:18:32;100574.44;;;7.47;77.95
61682;BME280;47577;43.610;25.010;2024-03-07T08:20:58;100571.72;;;7.52;77.29
61682;BME280;47577;43.610;25.010;2024-03-07T08:23:24;100573.44;;;7.53;77.66
61682;BME280;47577;43.610;25.010;2024-03-07T08:25:54;100570.78;;;7.53;78.16
61682;BME280;47577;43.610;25.010;2024-03-07T08:28:20;100571.66;;;7.53;76.84
61682;BME280;47577;43.610;25.010;2024-03-07T08:30:46;100571.66;;;7.53;77.10
61682;BME280;47577;43.610;25.010;2024-03-07T08:33:11;100577.81;;;7.55;77.31
61682;BME280;47577;43.610;25.010;2024-03-07T08:35:38;100584.59;;;7.68;79.64
61682;BME280;47577;43.610;25.010;2024-03-07T08:38:04;100591.59;;;7.73;79.84
61682;BME280;47577;43.610;25.010;2024-03-07T08:40:30;100598.66;;;7.72;78.72
61682;BME280;47577;43.610;25.010;2024-03-07T08:42:59;100600.56;;;7.64;81.95
61682;BME280;47577;43.610;25.010;2024-03-07T08:45:26;100598.06;;;7.56;82.19
61682;BME280;47577;43.610;25.010;2024-03-07T08:47:53;100589.19;;;7.59;83.25
61682;BME280;47577;43.610;25.010;2024-03-07T08:50:23;100600.44;;;7.72;84.46
61682;BME280;47577;43.610;25.010;2024-03-07T08:52:49;100608.41;;;7.70;82.02
61682;BME280;47577;43.610;25.010;2024-03-07T08:55:25;100595.03;;;7.78;83.86
61682;BME280;47577;43.610;25.010;2024-03-07T08:57:51;100600.41;;;7.73;81.73
61682;BME280;47577;43.610;25.010;2024-03-07T09:00:18;100610.84;;;7.81;83.94
61682;BME280;47577;43.610;25.010;2024-03-07T09:02:52;100615.13;;;7.88;83.44
61682;BME280;47577;43.610;25.010;2024-03-07T09:05:19;100605.50;;;7.84;85.87
61682;BME280;47577;43.610;25.010;2024-03-07T09:07:46;100603.78;;;7.81;86.39
61682;BME280;47577;43.610;25.010;2024-03-07T09:10:13;100602.91;;;7.81;87.08
61682;BME280;47577;43.610;25.010;2024-03-07T09:12:40;100607.97;;;7.93;88.35
61682;BME280;47577;43.610;25.010;2024-03-07T09:15:06;100601.94;;;7.85;89.16
61682;BME280;47577;43.610;25.010;2024-03-07T09:17:31;100604.44;;;7.93;88.41
61682;BME280;47577;43.610;25.010;2024-03-07T09:19:57;100607.97;;;7.93;88.78
61682;BME280;47577;43.610;25.010;2024-03-07T09:22:23;100604.53;;;7.88;89.55
61682;BME280;47577;43.610;25.010;2024-03-07T09:24:49;100605.28;;;7.95;88.32
61682;BME280;47577;43.610;25.010;2024-03-07T09:27:14;100599.03;;;7.99;89.48
61682;BME280;47577;43.610;25.010;2024-03-07T09:29:40;100605.03;;;8.07;90.45
61682;BME280;47577;43.610;25.010;2024-03-07T09:32:08;100611.06;;;8.15;88.17
61682;BME280;47577;43.610;25.010;2024-03-07T09:34:34;100612.06;;;8.08;88.48
61682;BME280;47577;43.610;25.010;2024-03-07T09:37:03;100609.72;;;7.94;90.53
61682;BME280;47577;43.610;25.010;2024-03-07T09:39:28;100601.75;;;7.96;91.11
61682;BME280;47577;43.610;25.010;2024-03-07T09:41:57;100615.72;;;8.02;91.51
61682;BME280;47577;43.610;25.010;2024-03-07T09:44:24;100606.91;;;8.02;90.14
61682;BME280;47577;43.610;25.010;2024-03-07T09:46:54;100614.53;;;8.17;91.17
61682;BME280;47577;43.610;25.010;2024-03-07T09:49:21;100612.59;;;8.26;91.14
61682;BME280;47577;43.610;25.010;2024-03-07T09:51:51;100600.16;;;8.29;90.68
61682;BME280;47577;43.610;25.010;2024-03-07T09:54:23;100602.09;;;8.21;90.56
61682;BME280;47577;43.610;25.010;2024-03-07T09:56:53;100595.78;;;8.28;90.46
61682;BME280;47577;43.610;25.010;2024-03-07T09:59:20;100598.41;;;8.30;91.62
61682;BME280;47577;43.610;25.010;2024-03-07T10:01:55;100602.81;;;8.29;92.28
61682;BME280;47577;43.610;25.010;2024-03-07T10:07:01;100600.78;;;8.42;93.33
61682;BME280;47577;43.610;25.010;2024-03-07T10:09:27;100604.25;;;8.47;92.18
61682;BME280;47577;43.610;25.010;2024-03-07T10:11:59;100605.22;;;8.43;91.86
61682;BME280;47577;43.610;25.010;2024-03-07T10:14:25;100606.75;;;8.53;90.23
61682;BME280;47577;43.610;25.010;2024-03-07T10:16:53;100604.97;;;8.54;90.69
61682;BME280;47577;43.610;25.010;2024-03-07T10:19:22;100603.34;;;8.47;93.25
61682;BME280;47577;43.610;25.010;2024-03-07T10:21:48;100598.03;;;8.48;92.35
61682;BME280;47577;43.610;25.010;2024-03-07T10:24:13;100605.97;;;8.48;92.24
61682;BME280;47577;43.610;25.010;2024-03-07T10:26:40;100598.13;;;8.44;91.38
61682;BME280;47577;43.610;25.010;2024-03-07T10:29:06;100592.09;;;8.35;93.51
61682;BME280;47577;43.610;25.010;2024-03-07T10:31:35;100600.97;;;8.34;92.45
61682;BME280;47577;43.610;25.010;2024-03-07T10:34:04;100604.66;;;8.26;92.84
61682;BME280;47577;43.610;25.010;2024-03-07T10:36:33;100603.84;;;8.22;93.46
61682;BME280;47577;43.610;25.010;2024-03-07T10:39:00;100593.25;;;8.22;92.72
61682;BME280;47577;43.610;25.010;2024-03-07T10:41:45;100600.09;;;8.32;92.70
61682;BME280;47577;43.610;25.010;2024-03-07T10:44:19;100607.06;;;8.38;93.58
61682;BME280;47577;43.610;25.010;2024-03-07T10:46:55;100601.00;;;8.33;92.86
61682;BME280;47577;43.610;25.010;2024-03-07T10:49:25;100589.69;;;8.24;94.49
61682;BME280;47577;43.610;25.010;2024-03-07T10:52:02;100592.38;;;8.23;95.15
61682;BME280;47577;43.610;25.010;2024-03-07T10:54:36;100600.31;;;8.23;96.03
61682;BME280;47577;43.610;25.010;2024-03-07T10:57:20;100603.75;;;8.27;95.86
61682;BME280;47577;43.610;25.010;2024-03-07T10:59:56;100586.06;;;8.29;95.64
61682;BME280;47577;43.610;25.010;2024-03-07T11:04:53;100594.69;;;8.37;96.87
61682;BME280;47577;43.610;25.010;2024-03-07T11:07:20;100592.88;;;8.39;96.47
61682;BME280;47577;43.610;25.010;2024-03-07T11:09:49;100592.09;;;8.35;97.42
61682;BME280;47577;43.610;25.010;2024-03-07T11:12:16;100596.69;;;8.27;96.53
61682;BME280;47577;43.610;25.010;2024-03-07T11:14:42;100584.94;;;8.39;97.87
61682;BME280;47577;43.610;25.010;2024-03-07T11:17:09;100591.94;;;8.45;96.74
61682;BME280;47577;43.610;25.010;2024-03-07T11:19:38;100583.84;;;8.51;97.61
61682;BME280;47577;43.610;25.010;2024-03-07T11:22:05;100573.94;;;8.59;97.40
61682;BME280;47577;43.610;25.010;2024-03-07T11:24:43;100582.66;;;8.64;98.08
61682;BME280;47577;43.610;25.010;2024-03-07T11:27:10;100577.34;;;8.64;98.40
61682;BME280;47577;43.610;25.010;2024-03-07T11:29:49;100585.16;;;8.70;96.52
61682;BME280;47577;43.610;25.010;2024-03-07T11:32:23;100581.72;;;8.67;97.32
61682;BME280;47577;43.610;25.010;2024-03-07T11:34:49;100590.50;;;8.69;97.40
61682;BME280;47577;43.610;25.010;2024-03-07T11:37:20;100581.66;;;8.70;97.34
61682;BME280;47577;43.610;25.010;2024-03-07T11:40:02;100580.09;;;8.59;96.41
61682;BME280;47577;43.610;25.010;2024-03-07T11:42:33;100582.63;;;8.66;97.82
61682;BME280;47577;43.610;25.010;2024-03-07T11:45:01;100588.63;;;8.74;96.73
61682;BME280;47577;43.610;25.010;2024-03-07T11:47:38;100579.06;;;8.67;96.63
61682;BME280;47577;43.610;25.010;2024-03-07T11:50:05;100572.16;;;8.59;97.62
61682;BME280;47577;43.610;25.010;2024-03-07T11:52:37;100576.41;;;8.67;95.30
61682;BME280;47577;43.610;25.010;2024-03-07T11:55:07;100585.16;;;8.70;96.06
61682;BME280;47577;43.610;25.010;2024-03-07T11:57:33;100558.72;;;8.67;96.56
61682;BME280;47577;43.610;25.010;2024-03-07T11:59:59;100573.63;;;8.71;95.40
61682;BME280;47577;43.610;25.010;2024-03-07T12:02:27;100570.91;;;8.74;96.46
61682;BME280;47577;43.610;25.010;2024-03-07T12:04:54;100584.03;;;8.81;96.03
61682;BME280;47577;43.610;25.010;2024-03-07T12:07:20;100576.22;;;8.74;95.51
61682;BME280;47577;43.610;25.010;2024-03-07T12:09:49;100577.84;;;8.82;95.96
61682;BME280;47577;43.610;25.010;2024-03-07T12:12:21;100571.00;;;8.71;95.77
61682;BME280;47577;43.610;25.010;2024-03-07T12:14:50;100580.63;;;8.75;95.33
61682;BME280;47577;43.610;25.010;2024-03-07T12:17:22;100585.81;;;8.80;95.76
61682;BME280;47577;43.610;25.010;2024-03-07T12:19:48;100579.81;;;8.73;95.98
61682;BME280;47577;43.610;25.010;2024-03-07T12:22:21;100573.19;;;8.54;96.45
61682;BME280;47577;43.610;25.010;2024-03-07T12:25:05;100572.91;;;8.65;95.96
61682;BME280;47577;43.610;25.010;2024-03-07T12:27:33;100575.75;;;8.57;96.86
61682;BME280;47577;43.610;25.010;2024-03-07T12:29:59;100583.78;;;8.54;97.03
61682;BME280;47577;43.610;25.010;2024-03-07T12:32:32;100581.81;;;8.62;96.93
61682;BME280;47577;43.610;25.010;2024-03-07T12:34:58;100570.25;;;8.65;97.36
61682;BME280;47577;43.610;25.010;2024-03-07T12:37:24;100570.13;;;8.71;96.31
61682;BME280;47577;43.610;25.010;2024-03-07T12:39:52;100579.97;;;8.66;97.07
61682;BME280;47577;43.610;25.010;2024-03-07T12:42:27;100569.25;;;8.70;96.13
61682;BME280;47577;43.610;25.010;2024-03-07T12:44:54;100565.75;;;8.70;97.55
61682;BME280;47577;43.610;25.010;2024-03-07T12:47:19;100562.28;;;8.66;97.48
61682;BME280;47577;43.610;25.010;2024-03-07T12:49:45;100577.94;;;8.77;96.43
61682;BME280;47577;43.610;25.010;2024-03-07T12:52:12;100574.28;;;8.81;97.54
61682;BME280;47577;43.610;25.010;2024-03-07T12:54:41;100571.94;;;8.69;97.25
61682;BME280;47577;43.610;25.010;2024-03-07T12:57:08;100564.69;;;8.77;97.48